Time;durP1;ratioP1;P1;durP2;ratioP2;P2;SDS_P1;SDS_P2;PMS_P1;PMS_P2;Temp;Humidity;BMP_temperature;BMP_pressure;BME280_temperature;BME280_humidity;BME280_pressure;Samples;Min_cycle;Max_cycle;Signal;HPM_P1;HPM_P2
2021/09/13 00:02:00;;;;;;;1.15;0.60;;;;;;;;;;7388138;19;20018;-61
2021/09/13 00:04:28;;;;;;;0.50;0.50;;;;;;;;;;7388579;19;20014;-61
2021/09/13 00:06:56;;;;;;;0.70;0.50;;;;;;;;;;7388572;19;20162;-61
2021/09/13 00:09:23;;;;;;;0.82;0.60;;;;;;;;;;7388637;19;20010;-61
2021/09/13 00:11:52;;;;;;;0.80;0.50;;;;;;;;;;7387825;19;20051;-61
2021/09/13 00:14:22;;;;;;;0.70;0.45;;;;;;;;;;7388722;19;20086;-61
2021/09/13 00:16:49;;;;;;;1.17;0.55;;;;;;;;;;7387850;19;20044;-61
2021/09/13 00:19:16;;;;;;;0.85;0.52;;;;;;;;;;7388218;19;20480;-62
2021/09/13 00:21:44;;;;;;;0.40;0.40;;;;;;;;;;7385766;19;20014;-61
2021/09/13 00:24:12;;;;;;;0.80;0.40;;;;;;;;;;7386093;19;20014;-61
2021/09/13 00:26:40;;;;;;;0.63;0.60;;;;;;;;;;7385786;19;20090;-61
2021/09/13 00:29:07;;;;;;;0.82;0.30;;;;;;;;;;7387469;19;20043;-61
2021/09/13 00:31:37;;;;;;;1.60;0.30;;;;;;;;;;7387561;19;20046;-61
2021/09/13 00:34:08;;;;;;;0.32;0.32;;;;;;;;;;7387428;19;20035;-61
2021/09/13 00:36:35;;;;;;;0.47;0.30;;;;;;;;;;7387541;19;20032;-61
2021/09/13 00:39:04;;;;;;;1.42;0.55;;;;;;;;;;7387214;19;20011;-60
2021/09/13 00:41:34;;;;;;;0.35;0.35;;;;;;;;;;7386741;19;20018;-60
2021/09/13 00:44:02;;;;;;;2.58;0.43;;;;;;;;;;7385532;19;20040;-61
2021/09/13 00:46:29;;;;;;;1.83;0.50;;;;;;;;;;7385844;19;20043;-60
2021/09/13 00:48:57;;;;;;;0.65;0.52;;;;;;;;;;7385634;19;20089;-61
2021/09/13 00:51:24;;;;;;;0.98;0.50;;;;;;;;;;7388100;19;20029;-61
2021/09/13 00:53:51;;;;;;;1.92;0.55;;;;;;;;;;7386400;19;20039;-61
2021/09/13 00:56:18;;;;;;;0.85;0.50;;;;;;;;;;7387282;19;20014;-61
2021/09/13 00:58:47;;;;;;;0.40;0.30;;;;;;;;;;7385072;19;20014;-61
2021/09/13 01:01:14;;;;;;;1.05;0.30;;;;;;;;;;7387180;19;20011;-61
2021/09/13 01:03:42;;;;;;;0.30;0.30;;;;;;;;;;7384904;19;20097;-60
2021/09/13 01:06:10;;;;;;;0.57;0.40;;;;;;;;;;7386971;19;20018;-60
2021/09/13 01:08:38;;;;;;;0.55;0.38;;;;;;;;;;7386836;19;20029;-60
2021/09/13 01:11:05;;;;;;;2.28;0.52;;;;;;;;;;7386258;19;20017;-59
2021/09/13 01:13:34;;;;;;;24.77;8.70;;;;;;;;;;7384687;19;20015;-59
2021/09/13 01:16:06;;;;;;;12.35;5.97;;;;;;;;;;7385887;19;20384;-60
2021/09/13 01:18:34;;;;;;;5.50;2.47;;;;;;;;;;7386573;19;20015;-62
2021/09/13 01:21:05;;;;;;;2.45;1.15;;;;;;;;;;7386319;19;20030;-61
2021/09/13 01:23:35;;;;;;;3.90;1.02;;;;;;;;;;7389387;19;20022;-61
2021/09/13 01:26:11;;;;;;;3.13;1.40;;;;;;;;;;7392156;19;20031;-61
2021/09/13 01:28:40;;;;;;;2.33;0.90;;;;;;;;;;7395322;19;20011;-60
2021/09/13 01:31:10;;;;;;;1.02;0.60;;;;;;;;;;7391745;19;20487;-61
2021/09/13 01:33:43;;;;;;;0.30;0.30;;;;;;;;;;7392068;19;20010;-61
2021/09/13 01:36:19;;;;;;;0.98;0.50;;;;;;;;;;7391166;19;20280;-61
2021/09/13 01:38:46;;;;;;;1.38;0.40;;;;;;;;;;7392199;19;20019;-61
2021/09/13 01:41:14;;;;;;;1.02;0.38;;;;;;;;;;7392490;19;20014;-61
2021/09/13 01:43:43;;;;;;;1.35;0.50;;;;;;;;;;7390444;19;20039;-61
2021/09/13 01:46:10;;;;;;;0.93;0.50;;;;;;;;;;7389865;19;20086;-60
2021/09/13 01:48:46;;;;;;;1.02;0.45;;;;;;;;;;7390992;19;20015;-61
2021/09/13 01:51:13;;;;;;;0.85;0.40;;;;;;;;;;7392648;19;20014;-58
2021/09/13 01:53:41;;;;;;;2.13;0.60;;;;;;;;;;7392387;19;20087;-62
2021/09/13 01:56:09;;;;;;;2.38;1.17;;;;;;;;;;7393202;19;20010;-59
2021/09/13 01:58:37;;;;;;;2.67;0.82;;;;;;;;;;7390840;19;20074;-59
2021/09/13 02:01:04;;;;;;;0.55;0.47;;;;;;;;;;7391006;19;20027;-59
2021/09/13 02:03:40;;;;;;;0.65;0.45;;;;;;;;;;7397014;19;20074;-59
2021/09/13 02:06:09;;;;;;;1.00;0.70;;;;;;;;;;7394215;19;20015;-58
2021/09/13 02:08:37;;;;;;;0.63;0.45;;;;;;;;;;7393373;19;20017;-60
2021/09/13 02:11:06;;;;;;;1.45;0.50;;;;;;;;;;7394133;19;20006;-59
2021/09/13 02:13:35;;;;;;;2.25;0.60;;;;;;;;;;7395690;19;20039;-59
2021/09/13 02:16:03;;;;;;;1.98;0.40;;;;;;;;;;7395499;19;20014;-60
2021/09/13 02:18:32;;;;;;;16.52;6.82;;;;;;;;;;7393758;19;20022;-57
2021/09/13 02:21:00;;;;;;;7.53;3.67;;;;;;;;;;7393839;19;20015;-59
2021/09/13 02:23:28;;;;;;;4.80;2.08;;;;;;;;;;7392681;19;20007;-61
2021/09/13 02:26:01;;;;;;;;;;;;;;;;;;7394260;19;20019;-61
2021/09/13 02:28:29;;;;;;;1.52;0.80;;;;;;;;;;7394161;19;19925;-60
2021/09/13 02:30:57;;;;;;;0.88;0.52;;;;;;;;;;7394032;19;20027;-61
2021/09/13 02:33:25;;;;;;;0.68;0.30;;;;;;;;;;7394081;19;20010;-61
2021/09/13 02:35:52;;;;;;;0.35;0.30;;;;;;;;;;7391829;19;20010;-60
2021/09/13 02:38:20;;;;;;;1.35;0.60;;;;;;;;;;7392720;19;20014;-61
2021/09/13 02:40:47;;;;;;;0.77;0.50;;;;;;;;;;7394851;19;20022;-61
2021/09/13 02:43:15;;;;;;;1.92;0.57;;;;;;;;;;7392123;19;20010;-61
2021/09/13 02:45:43;;;;;;;0.73;0.40;;;;;;;;;;7391302;19;20018;-61
2021/09/13 02:48:10;;;;;;;1.55;0.40;;;;;;;;;;7392249;19;20014;-62
2021/09/13 02:50:38;;;;;;;8.35;3.60;;;;;;;;;;7391791;19;20470;-59
2021/09/13 02:53:06;;;;;;;5.25;2.80;;;;;;;;;;7395749;19;20015;-61
2021/09/13 02:55:35;;;;;;;4.35;1.30;;;;;;;;;;7391994;19;20007;-61
2021/09/13 02:58:04;;;;;;;2.85;0.93;;;;;;;;;;7392267;19;20027;-61
2021/09/13 03:00:33;;;;;;;3.25;1.70;;;;;;;;;;7388571;19;20043;-61
2021/09/13 03:03:04;;;;;;;1.70;0.90;;;;;;;;;;7389472;19;20014;-61
2021/09/13 03:05:32;;;;;;;2.88;0.85;;;;;;;;;;7388644;19;20018;-62
2021/09/13 03:08:07;;;;;;;1.35;0.90;;;;;;;;;;7388763;19;20022;-61
2021/09/13 03:10:35;;;;;;;1.65;0.80;;;;;;;;;;7388226;19;20006;-61
2021/09/13 03:13:03;;;;;;;0.85;0.50;;;;;;;;;;7389100;19;20035;-61
2021/09/13 03:15:30;;;;;;;0.52;0.40;;;;;;;;;;7391796;19;20074;-63
2021/09/13 03:17:57;;;;;;;8.82;4.35;;;;;;;;;;7391797;19;20590;-61
2021/09/13 03:20:26;;;;;;;4.38;2.38;;;;;;;;;;7391655;19;20082;-62
2021/09/13 03:22:53;;;;;;;2.40;1.52;;;;;;;;;;7394076;19;20034;-61
2021/09/13 03:25:23;;;;;;;1.67;0.80;;;;;;;;;;7392753;19;20010;-61
2021/09/13 03:27:52;;;;;;;3.20;0.45;;;;;;;;;;7393183;19;20090;-62
2021/09/13 03:30:22;;;;;;;0.55;0.55;;;;;;;;;;7392054;19;20015;-60
2021/09/13 03:32:50;;;;;;;2.95;0.40;;;;;;;;;;7391893;19;20015;-61
2021/09/13 03:35:17;;;;;;;0.30;0.30;;;;;;;;;;7392909;19;20060;-61
2021/09/13 03:37:44;;;;;;;0.40;0.30;;;;;;;;;;7390629;19;20078;-61
2021/09/13 03:40:13;;;;;;;2.25;0.20;;;;;;;;;;7392408;19;20019;-61
2021/09/13 03:42:40;;;;;;;0.20;0.20;;;;;;;;;;7392939;19;20046;-61
2021/09/13 03:45:10;;;;;;;2.08;0.30;;;;;;;;;;7387820;19;20011;-64
2021/09/13 03:47:56;;;;;;;102.63;49.90;;;;;;;;;;7391426;19;20040;-63
2021/09/13 03:50:24;;;;;;;19.50;10.88;;;;;;;;;;7390622;19;20010;-63
2021/09/13 03:52:52;;;;;;;5.50;2.60;;;;;;;;;;7394247;19;20010;-62
2021/09/13 03:55:21;;;;;;;1.50;0.80;;;;;;;;;;7392466;19;20039;-62
2021/09/13 03:57:49;;;;;;;1.08;0.35;;;;;;;;;;7390514;19;20014;-61
2021/09/13 04:00:19;;;;;;;1.38;0.35;;;;;;;;;;7391466;19;20025;-61
2021/09/13 04:02:50;;;;;;;0.25;0.22;;;;;;;;;;7391768;19;20021;-63
2021/09/13 04:05:21;;;;;;;2.53;0.40;;;;;;;;;;7388291;19;20015;-61
2021/09/13 04:08:31;;;;;;;1.35;0.82;;;;;;;;;;7391829;19;20021;-63
2021/09/13 04:11:21;;;;;;;1.17;0.40;;;;;;;;;;7389817;19;20519;-63
2021/09/13 04:14:12;;;;;;;0.57;0.40;;;;;;;;;;7390608;19;20010;-59
2021/09/13 04:16:45;;;;;;;;;;;;;;;;;;7389222;19;20015;-62
2021/09/13 04:19:34;;;;;;;3.83;1.83;;;;;;;;;;7389403;19;19915;-60
2021/09/13 04:22:22;;;;;;;1.90;0.90;;;;;;;;;;7390609;19;20044;-60
2021/09/13 04:25:10;;;;;;;0.98;0.60;;;;;;;;;;7388452;19;20652;-60
2021/09/13 04:27:47;;;;;;;2.47;0.70;;;;;;;;;;7389011;19;20527;-59
2021/09/13 04:30:37;;;;;;;3.63;0.70;;;;;;;;;;7394220;19;20011;-60
2021/09/13 04:33:24;;;;;;;2.58;0.50;;;;;;;;;;7391673;19;20014;-60
2021/09/13 04:36:18;;;;;;;2.83;1.10;;;;;;;;;;7387553;19;20093;-58
2021/09/13 04:39:14;;;;;;;3.75;0.80;;;;;;;;;;7390561;19;20006;-59
2021/09/13 04:42:05;;;;;;;1.38;0.57;;;;;;;;;;7389254;19;20018;-60
2021/09/13 04:44:59;;;;;;;26.88;12.77;;;;;;;;;;7387737;19;20021;-61
2021/09/13 04:48:02;;;;;;;4.13;0.90;;;;;;;;;;7390099;19;20019;-60
2021/09/13 04:50:52;;;;;;;2.15;0.90;;;;;;;;;;7388722;19;20014;-60
2021/09/13 04:53:40;;;;;;;3.53;0.65;;;;;;;;;;7389916;19;20014;-60
2021/09/13 04:56:12;;;;;;;2.33;0.85;;;;;;;;;;7388915;19;20010;-61
2021/09/13 04:58:40;;;;;;;2.05;0.77;;;;;;;;;;7386992;19;20017;-60
2021/09/13 05:01:08;;;;;;;19.73;9.13;;;;;;;;;;7385467;19;20097;-61
2021/09/13 05:03:39;;;;;;;2.03;1.00;;;;;;;;;;7388036;19;20493;-62
2021/09/13 05:06:07;;;;;;;2.30;0.70;;;;;;;;;;7388376;19;20070;-63
2021/09/13 05:08:34;;;;;;;1.40;0.70;;;;;;;;;;7388878;19;20068;-62
2021/09/13 05:11:08;;;;;;;1.48;0.68;;;;;;;;;;7388105;19;20034;-62
2021/09/13 05:13:35;;;;;;;1.20;0.52;;;;;;;;;;7387361;19;20015;-68
2021/09/13 05:16:06;;;;;;;3.03;0.45;;;;;;;;;;7388103;19;20011;-65
2021/09/13 05:18:38;;;;;;;1.30;0.45;;;;;;;;;;7388516;19;20022;-62
2021/09/13 05:21:06;;;;;;;2.75;0.45;;;;;;;;;;7387486;19;20042;-64
2021/09/13 05:23:34;;;;;;;2.65;0.70;;;;;;;;;;7387648;19;20019;-63
2021/09/13 05:26:02;;;;;;;1.02;0.50;;;;;;;;;;7387430;19;20472;-60
2021/09/13 05:28:30;;;;;;;4.28;0.60;;;;;;;;;;7389311;19;20411;-68
2021/09/13 05:30:59;;;;;;;1.23;0.40;;;;;;;;;;7388766;19;20039;-61
2021/09/13 05:33:32;;;;;;;40.97;28.45;;;;;;;;;;7392723;19;20017;-62
2021/09/13 05:36:00;;;;;;;2.38;1.60;;;;;;;;;;7388486;19;20007;-61
2021/09/13 05:38:29;;;;;;;11.57;0.88;;;;;;;;;;7389397;19;20511;-61
2021/09/13 05:41:03;;;;;;;;;;;;;;;;;;7388233;19;20479;-60
2021/09/13 05:43:30;;;;;;;0.65;0.40;;;;;;;;;;7386783;19;19919;-61
2021/09/13 05:45:57;;;;;;;0.75;0.45;;;;;;;;;;7388112;19;20017;-60
2021/09/13 05:48:26;;;;;;;2.33;0.75;;;;;;;;;;7387402;19;20443;-60
2021/09/13 05:50:54;;;;;;;7.07;3.25;;;;;;;;;;7387192;19;20200;-62
2021/09/13 05:53:23;;;;;;;2.00;0.70;;;;;;;;;;7391828;19;20017;-62
2021/09/13 05:55:53;;;;;;;0.55;0.40;;;;;;;;;;7388876;19;20014;-61
2021/09/13 05:58:21;;;;;;;0.95;0.40;;;;;;;;;;7387854;19;20019;-61
2021/09/13 06:00:52;;;;;;;0.40;0.30;;;;;;;;;;7385163;19;20017;-61
2021/09/13 06:03:20;;;;;;;0.30;0.30;;;;;;;;;;7386870;19;20041;-65
2021/09/13 06:06:20;;;;;;;28.00;16.08;;;;;;;;;;7388180;19;20022;-62
2021/09/13 06:08:48;;;;;;;3.92;1.73;;;;;;;;;;7391832;19;20074;-60
2021/09/13 06:11:16;;;;;;;2.22;0.43;;;;;;;;;;7395721;19;20023;-62
2021/09/13 06:13:46;;;;;;;1.00;0.40;;;;;;;;;;7393906;19;20479;-62
2021/09/13 06:16:14;;;;;;;2.13;0.60;;;;;;;;;;7395274;19;20014;-61
2021/09/13 06:18:46;;;;;;;1.00;0.57;;;;;;;;;;7394062;19;20014;-61
2021/09/13 06:21:15;;;;;;;0.57;0.40;;;;;;;;;;7394125;19;20043;-60
2021/09/13 06:23:44;;;;;;;0.73;0.30;;;;;;;;;;7393517;19;20016;-61
2021/09/13 06:26:14;;;;;;;0.60;0.35;;;;;;;;;;7391661;19;20089;-62
2021/09/13 06:28:46;;;;;;;0.28;0.28;;;;;;;;;;7395051;19;20018;-60
2021/09/13 06:31:14;;;;;;;1.65;0.43;;;;;;;;;;7393046;19;20014;-61
2021/09/13 06:33:42;;;;;;;1.35;0.30;;;;;;;;;;7394467;19;20038;-61
2021/09/13 06:36:11;;;;;;;1.33;0.45;;;;;;;;;;7397360;19;20006;-62
2021/09/13 06:38:44;;;;;;;2.45;1.38;;;;;;;;;;7393268;19;20015;-60
2021/09/13 06:41:12;;;;;;;2.83;0.50;;;;;;;;;;7392870;19;20035;-61
2021/09/13 06:43:42;;;;;;;0.38;0.30;;;;;;;;;;7394320;19;20039;-61
2021/09/13 06:46:21;;;;;;;0.20;0.20;;;;;;;;;;7393428;19;20022;-61
2021/09/13 06:48:49;;;;;;;0.40;0.30;;;;;;;;;;7393799;19;20085;-60
2021/09/13 06:51:17;;;;;;;0.32;0.30;;;;;;;;;;7392074;19;20010;-59
2021/09/13 06:53:44;;;;;;;1.95;0.40;;;;;;;;;;7397198;19;20042;-60
2021/09/13 06:56:12;;;;;;;0.20;0.20;;;;;;;;;;7391959;19;20459;-60
2021/09/13 06:58:40;;;;;;;0.32;0.30;;;;;;;;;;7392970;19;20014;-60
2021/09/13 07:01:07;;;;;;;0.20;0.20;;;;;;;;;;7392191;19;20018;-60
2021/09/13 07:03:35;;;;;;;0.63;0.35;;;;;;;;;;7393954;19;20037;-60
2021/09/13 07:06:03;;;;;;;103.15;53.33;;;;;;;;;;7390085;19;20015;-59
2021/09/13 07:08:30;;;;;;;17.48;8.77;;;;;;;;;;7390480;19;20019;-57
2021/09/13 07:10:59;;;;;;;2.30;0.85;;;;;;;;;;7390418;19;20113;-59
2021/09/13 07:13:26;;;;;;;1.38;0.60;;;;;;;;;;7393564;19;20070;-57
2021/09/13 07:16:03;;;;;;;1.05;0.30;;;;;;;;;;7392814;19;20006;-58
2021/09/13 07:18:31;;;;;;;1.10;0.40;;;;;;;;;;7393162;19;20098;-58
2021/09/13 07:20:59;;;;;;;0.25;0.25;;;;;;;;;;7392295;19;20002;-59
2021/09/13 07:23:26;;;;;;;1.10;0.25;;;;;;;;;;7392791;19;20010;-62
2021/09/13 07:25:54;;;;;;;0.68;0.20;;;;;;;;;;7390725;19;20035;-63
2021/09/13 07:28:21;;;;;;;0.28;0.28;;;;;;;;;;7393049;19;20018;-62
2021/09/13 07:30:49;;;;;;;1.23;0.13;;;;;;;;;;7392384;19;20010;-61
2021/09/13 07:33:16;;;;;;;0.70;0.17;;;;;;;;;;7392809;19;20014;-61
2021/09/13 07:35:43;;;;;;;0.70;0.20;;;;;;;;;;7393295;19;20039;-61
2021/09/13 07:38:11;;;;;;;0.20;0.20;;;;;;;;;;7392805;19;20010;-61
2021/09/13 07:40:39;;;;;;;0.43;0.20;;;;;;;;;;7392395;19;20018;-61
2021/09/13 07:43:07;;;;;;;1.65;0.20;;;;;;;;;;7391877;19;20010;-61
2021/09/13 07:45:35;;;;;;;0.70;0.20;;;;;;;;;;7391051;19;20018;-62
2021/09/13 07:48:03;;;;;;;0.40;0.30;;;;;;;;;;7392480;19;20019;-61
2021/09/13 07:50:31;;;;;;;57.28;26.73;;;;;;;;;;7391805;19;20018;-60
2021/09/13 07:52:58;;;;;;;4.68;2.38;;;;;;;;;;7397316;19;20010;-61
2021/09/13 07:55:26;;;;;;;2.38;0.63;;;;;;;;;;7392339;19;20035;-61
2021/09/13 07:57:53;;;;;;;0.35;0.20;;;;;;;;;;7392167;19;20035;-60
2021/09/13 08:00:38;;;;;;;0.20;0.20;;;;;;;;;;7391735;19;20472;-62
2021/09/13 08:03:06;;;;;;;2.00;0.20;;;;;;;;;;7391501;19;20526;-61
2021/09/13 08:05:34;;;;;;;0.20;0.20;;;;;;;;;;7390755;19;20023;-61
2021/09/13 08:08:01;;;;;;;0.90;0.40;;;;;;;;;;7391833;19;20043;-61
2021/09/13 08:10:29;;;;;;;0.22;0.20;;;;;;;;;;7392596;19;20010;-61
2021/09/13 08:12:56;;;;;;;0.25;0.20;;;;;;;;;;7391822;19;20031;-61
2021/09/13 08:15:24;;;;;;;0.28;0.22;;;;;;;;;;7391408;19;20010;-61
2021/09/13 08:17:52;;;;;;;0.25;0.10;;;;;;;;;;7391228;19;20346;-61
2021/09/13 08:20:19;;;;;;;0.10;0.10;;;;;;;;;;7391846;19;20011;-61
2021/09/13 08:22:47;;;;;;;6.15;2.25;;;;;;;;;;7389568;19;20026;-58
2021/09/13 08:25:15;;;;;;;59.95;32.80;;;;;;;;;;7390344;19;20373;-62
2021/09/13 08:27:58;;;;;;;14.35;3.13;;;;;;;;;;7389310;19;20467;-61
2021/09/13 08:30:26;;;;;;;0.73;0.40;;;;;;;;;;7391065;19;20499;-61
2021/09/13 08:32:54;;;;;;;0.38;0.30;;;;;;;;;;7388818;19;20006;-61
2021/09/13 08:35:21;;;;;;;2.90;0.63;;;;;;;;;;7388973;19;20358;-62
2021/09/13 08:37:48;;;;;;;0.73;0.20;;;;;;;;;;7390284;19;20014;-62
2021/09/13 08:40:16;;;;;;;0.40;0.28;;;;;;;;;;7390439;19;20044;-61
2021/09/13 08:42:46;;;;;;;1.85;0.40;;;;;;;;;;7391018;19;20021;-61
2021/09/13 08:45:32;;;;;;;1.55;0.20;;;;;;;;;;7390180;19;20014;-63
2021/09/13 08:50:41;;;;;;;4.20;0.70;;;;;;;;;;7390541;19;20092;-62
2021/09/13 08:53:11;;;;;;;0.85;0.40;;;;;;;;;;7395697;19;20010;-63
2021/09/13 08:55:39;;;;;;;0.30;0.30;;;;;;;;;;7390783;19;20006;-62
2021/09/13 08:58:07;;;;;;;0.28;0.28;;;;;;;;;;7390321;19;20017;-62
2021/09/13 09:00:40;;;;;;;3.53;0.30;;;;;;;;;;7390881;19;20010;-62
2021/09/13 09:03:12;;;;;;;0.43;0.38;;;;;;;;;;7390260;19;20011;-62
2021/09/13 09:05:43;;;;;;;1.60;0.15;;;;;;;;;;7389403;19;20015;-62
2021/09/13 09:08:23;;;;;;;0.20;0.20;;;;;;;;;;7389750;19;20043;-60
2021/09/13 09:10:56;;;;;;;1.00;0.30;;;;;;;;;;7389375;19;20056;-60
2021/09/13 09:13:26;;;;;;;1.55;0.20;;;;;;;;;;7390374;19;20011;-60
2021/09/13 09:16:01;;;;;;;0.20;0.20;;;;;;;;;;7388925;19;20010;-60
2021/09/13 09:18:42;;;;;;;8.68;3.63;;;;;;;;;;7389425;19;20495;-62
2021/09/13 09:21:31;;;;;;;1.50;0.50;;;;;;;;;;7390511;19;20048;-54
2021/09/13 09:24:06;;;;;;;8.38;0.50;;;;;;;;;;7390095;19;20018;-57
2021/09/13 09:26:34;;;;;;;0.40;0.20;;;;;;;;;;7386228;19;20036;-52
2021/09/13 09:29:01;;;;;;;0.73;0.45;;;;;;;;;;7389629;19;20035;-53
2021/09/13 09:31:38;;;;;;;0.57;0.20;;;;;;;;;;7389865;19;20078;-51
2021/09/13 09:34:16;;;;;;;0.20;0.20;;;;;;;;;;7389509;19;20021;-54
2021/09/13 09:37:11;;;;;;;0.68;0.20;;;;;;;;;;7388656;19;20010;-59
2021/09/13 09:39:53;;;;;;;0.10;0.10;;;;;;;;;;7388616;19;20017;-56
2021/09/13 09:42:34;;;;;;;0.20;0.20;;;;;;;;;;7388748;19;20344;-57
2021/09/13 09:45:06;;;;;;;5.72;0.60;;;;;;;;;;7395042;19;20052;-57
2021/09/13 09:47:33;;;;;;;1.65;0.20;;;;;;;;;;7399343;19;20018;-59
2021/09/13 09:50:01;;;;;;;1.25;0.20;;;;;;;;;;7395675;19;20087;-60
2021/09/13 09:52:34;;;;;;;1.75;0.20;;;;;;;;;;7398014;19;20026;-59
2021/09/13 09:55:11;;;;;;;2.63;0.20;;;;;;;;;;7393087;19;20022;-59
2021/09/13 09:57:40;;;;;;;0.38;0.25;;;;;;;;;;7396689;19;20018;-59
2021/09/13 10:00:23;;;;;;;0.68;0.68;;;;;;;;;;7395673;19;20615;-59
2021/09/13 10:02:52;;;;;;;0.10;0.10;;;;;;;;;;7396449;19;20015;-58
2021/09/13 10:05:21;;;;;;;13.93;6.55;;;;;;;;;;7393089;19;20030;-58
2021/09/13 10:07:50;;;;;;;0.15;0.15;;;;;;;;;;7396494;19;20039;-59
2021/09/13 10:10:19;;;;;;;0.65;0.40;;;;;;;;;;7395493;19;20442;-59
2021/09/13 10:12:48;;;;;;;0.65;0.30;;;;;;;;;;7395453;19;20010;-59
2021/09/13 10:15:16;;;;;;;0.10;0.10;;;;;;;;;;7394717;19;20016;-58
2021/09/13 10:17:43;;;;;;;0.30;0.20;;;;;;;;;;7395381;19;20018;-53
2021/09/13 10:20:13;;;;;;;0.35;0.20;;;;;;;;;;7395748;19;20022;-59
2021/09/13 10:22:42;;;;;;;0.15;0.15;;;;;;;;;;7395884;19;20081;-58
2021/09/13 10:25:13;;;;;;;1.45;0.20;;;;;;;;;;7394574;19;20537;-54
2021/09/13 10:27:49;;;;;;;0.20;0.20;;;;;;;;;;7394746;19;20039;-59
2021/09/13 10:30:22;;;;;;;0.20;0.20;;;;;;;;;;7394787;19;20490;-59
2021/09/13 10:32:52;;;;;;;0.20;0.20;;;;;;;;;;7394520;19;20090;-59
2021/09/13 10:35:56;;;;;;;0.95;0.30;;;;;;;;;;7394706;19;20011;-59
2021/09/13 10:38:46;;;;;;;1.00;0.10;;;;;;;;;;7394504;19;20011;-58
2021/09/13 10:42:02;;;;;;;0.75;0.20;;;;;;;;;;7394790;19;20010;-59
2021/09/13 10:44:33;;;;;;;25.20;11.35;;;;;;;;;;7394319;19;20044;-53
2021/09/13 10:47:03;;;;;;;68.60;30.08;;;;;;;;;;7392670;19;20033;-49
2021/09/13 10:49:31;;;;;;;5.30;1.90;;;;;;;;;;7394340;19;20086;-59
2021/09/13 10:52:26;;;;;;;0.80;0.52;;;;;;;;;;7393246;19;20015;-57
2021/09/13 10:55:30;;;;;;;1.95;0.43;;;;;;;;;;7391522;19;20003;-50
2021/09/13 10:58:02;;;;;;;0.75;0.30;;;;;;;;;;7393846;19;20019;-55
2021/09/13 11:00:39;;;;;;;0.82;0.30;;;;;;;;;;7394004;19;20089;-58
2021/09/13 11:08:46;;;;;;;0.23;0.20;;;;;;;;;;7391880;19;20853;-57
2021/09/13 11:11:16;;;;;;;2.42;0.50;;;;;;;;;;7391702;19;20021;-51
2021/09/13 11:13:48;;;;;;;0.20;0.20;;;;;;;;;;7393657;19;20010;-58
2021/09/13 11:16:18;;;;;;;5.38;0.43;;;;;;;;;;7393347;19;20018;-58
2021/09/13 11:18:48;;;;;;;2.05;0.50;;;;;;;;;;7393940;19;20014;-51
2021/09/13 11:21:30;;;;;;;1.27;0.30;;;;;;;;;;7393916;19;20011;-57
2021/09/13 11:24:18;;;;;;;3.08;0.40;;;;;;;;;;7390953;19;20014;-61
2021/09/13 11:26:59;;;;;;;0.30;0.20;;;;;;;;;;7391867;19;20020;-60
2021/09/13 11:29:29;;;;;;;0.30;0.30;;;;;;;;;;7389106;19;20015;-64
2021/09/13 11:32:08;;;;;;;1.08;0.60;;;;;;;;;;7388067;19;20007;-59
2021/09/13 11:34:35;;;;;;;1.38;0.50;;;;;;;;;;7389898;19;20021;-61
2021/09/13 11:37:30;;;;;;;0.50;0.30;;;;;;;;;;7388624;19;20381;-61
2021/09/13 11:40:25;;;;;;;2.90;0.40;;;;;;;;;;7388785;19;20521;-58
2021/09/13 11:42:53;;;;;;;2.47;0.30;;;;;;;;;;7389927;19;20038;-58
2021/09/13 11:45:21;;;;;;;4.82;0.80;;;;;;;;;;7388053;19;20014;-58
2021/09/13 11:48:02;;;;;;;1.80;0.60;;;;;;;;;;7388501;19;20018;-62
2021/09/13 11:50:34;;;;;;;3.13;0.80;;;;;;;;;;7391413;19;20018;-62
2021/09/13 11:53:15;;;;;;;0.40;0.40;;;;;;;;;;7394438;19;20074;-62
2021/09/13 11:55:44;;;;;;;1.20;0.40;;;;;;;;;;7391898;19;20035;-62
2021/09/13 11:58:13;;;;;;;0.55;0.40;;;;;;;;;;7392095;19;20014;-61
2021/09/13 12:00:41;;;;;;;3.33;0.82;;;;;;;;;;7392391;19;20010;-60
2021/09/13 12:03:10;;;;;;;2.92;0.75;;;;;;;;;;7391396;19;20010;-61
2021/09/13 12:05:43;;;;;;;1.95;0.80;;;;;;;;;;7390932;19;20519;-60
2021/09/13 12:08:17;;;;;;;0.57;0.50;;;;;;;;;;7391731;19;20035;-61
2021/09/13 12:10:44;;;;;;;7.32;0.82;;;;;;;;;;7392520;19;20022;-60
2021/09/13 12:13:14;;;;;;;2.17;0.80;;;;;;;;;;7391609;19;20491;-61
2021/09/13 12:15:51;;;;;;;0.73;0.65;;;;;;;;;;7390756;19;20490;-61
2021/09/13 12:18:20;;;;;;;1.17;0.45;;;;;;;;;;7391847;19;20015;-60
2021/09/13 12:20:49;;;;;;;1.30;0.77;;;;;;;;;;7390052;19;20006;-62
2021/09/13 12:23:25;;;;;;;0.70;0.50;;;;;;;;;;7392351;19;20031;-61
2021/09/13 12:25:54;;;;;;;0.60;0.40;;;;;;;;;;7390573;19;20018;-62
2021/09/13 12:28:27;;;;;;;0.75;0.50;;;;;;;;;;7390727;19;20022;-60
2021/09/13 12:31:00;;;;;;;1.85;0.63;;;;;;;;;;7390106;19;20497;-60
2021/09/13 12:33:44;;;;;;;0.77;0.50;;;;;;;;;;7384123;19;20513;-61
2021/09/13 12:36:23;;;;;;;0.73;0.40;;;;;;;;;;7389480;19;20006;-59
2021/09/13 12:38:56;;;;;;;0.63;0.30;;;;;;;;;;7389060;19;20014;-59
2021/09/13 12:41:36;;;;;;;1.13;0.47;;;;;;;;;;7391243;19;20014;-56
2021/09/13 12:44:18;;;;;;;0.80;0.70;;;;;;;;;;7390998;19;20548;-59
2021/09/13 12:46:52;;;;;;;1.02;0.60;;;;;;;;;;7389802;19;20077;-57
2021/09/13 12:49:19;;;;;;;1.35;0.50;;;;;;;;;;7391108;19;20594;-58
2021/09/13 12:52:01;;;;;;;2.75;0.70;;;;;;;;;;7391717;19;20015;-59
2021/09/13 12:54:31;;;;;;;1.58;0.55;;;;;;;;;;7390399;19;20011;-58
2021/09/13 12:56:59;;;;;;;2.15;0.40;;;;;;;;;;7390565;19;20006;-57
2021/09/13 12:59:27;;;;;;;2.28;0.50;;;;;;;;;;7390553;19;20022;-54
2021/09/13 13:01:54;;;;;;;1.83;0.43;;;;;;;;;;7390314;19;20043;-59
2021/09/13 13:04:34;;;;;;;0.90;0.30;;;;;;;;;;7390642;19;20015;-52
2021/09/13 13:07:09;;;;;;;0.68;0.32;;;;;;;;;;7388523;19;20054;-56
2021/09/13 13:09:38;;;;;;;0.40;0.40;;;;;;;;;;7389375;19;20094;-56
2021/09/13 13:12:06;;;;;;;1.23;0.30;;;;;;;;;;7390155;19;20038;-54
2021/09/13 13:14:33;;;;;;;1.17;0.40;;;;;;;;;;7389554;19;20373;-49
2021/09/13 13:17:00;;;;;;;4.05;0.55;;;;;;;;;;7389832;19;20519;-57
2021/09/13 13:19:28;;;;;;;0.30;0.30;;;;;;;;;;7395352;19;20019;-54
2021/09/13 13:21:55;;;;;;;2.00;0.45;;;;;;;;;;7395709;19;20011;-59
2021/09/13 13:24:23;;;;;;;2.50;0.40;;;;;;;;;;7396313;19;20011;-59
2021/09/13 13:26:56;;;;;;;0.35;0.30;;;;;;;;;;7395439;19;20011;-59
2021/09/13 13:29:24;;;;;;;3.83;0.22;;;;;;;;;;7395115;19;20010;-57
2021/09/13 13:31:52;;;;;;;0.60;0.20;;;;;;;;;;7398030;19;20352;-58
2021/09/13 13:34:19;;;;;;;0.30;0.25;;;;;;;;;;7396482;19;20023;-57
2021/09/13 13:36:47;;;;;;;0.93;0.30;;;;;;;;;;7396141;19;20015;-58
2021/09/13 13:39:14;;;;;;;0.55;0.50;;;;;;;;;;7396412;19;20025;-59
2021/09/13 13:41:42;;;;;;;1.30;0.40;;;;;;;;;;7394472;19;20015;-62
2021/09/13 13:44:09;;;;;;;0.20;0.20;;;;;;;;;;7396031;19;20047;-62
2021/09/13 13:46:37;;;;;;;1.10;0.30;;;;;;;;;;7395747;19;20011;-62
2021/09/13 13:49:05;;;;;;;0.55;0.25;;;;;;;;;;7396572;19;20400;-62
2021/09/13 13:51:32;;;;;;;1.30;0.30;;;;;;;;;;7396792;19;20019;-62
2021/09/13 13:54:01;;;;;;;0.30;0.30;;;;;;;;;;7396051;19;20046;-62
2021/09/13 13:56:28;;;;;;;1.13;0.30;;;;;;;;;;7396275;19;20011;-63
2021/09/13 13:58:56;;;;;;;4.93;2.22;;;;;;;;;;7396788;19;20082;-61
2021/09/13 14:01:24;;;;;;;2.13;0.70;;;;;;;;;;7396030;19;20010;-62
2021/09/13 14:03:52;;;;;;;1.33;0.20;;;;;;;;;;7398841;19;20011;-61
2021/09/13 14:06:19;;;;;;;0.40;0.30;;;;;;;;;;7394866;19;20020;-61
2021/09/13 14:08:47;;;;;;;0.30;0.20;;;;;;;;;;7395702;19;20671;-61
2021/09/13 14:11:15;;;;;;;1.23;0.30;;;;;;;;;;7394811;19;20981;-58
2021/09/13 14:13:42;;;;;;;1.30;0.30;;;;;;;;;;7395135;19;20011;-57
2021/09/13 14:16:10;;;;;;;0.70;0.32;;;;;;;;;;7394374;19;20011;-59
2021/09/13 14:18:37;;;;;;;0.52;0.30;;;;;;;;;;7394960;19;20040;-58
2021/09/13 14:21:06;;;;;;;0.20;0.20;;;;;;;;;;7395244;19;20022;-59
2021/09/13 14:23:34;;;;;;;1.80;0.50;;;;;;;;;;7395058;19;20078;-61
2021/09/13 14:26:01;;;;;;;2.75;0.40;;;;;;;;;;7394723;19;20010;-60
2021/09/13 14:28:29;;;;;;;1.45;0.50;;;;;;;;;;7395066;19;20022;-60
2021/09/13 14:30:56;;;;;;;0.38;0.30;;;;;;;;;;7393750;19;20014;-58
2021/09/13 14:33:24;;;;;;;3.13;2.05;;;;;;;;;;7395433;19;20014;-61
2021/09/13 14:35:51;;;;;;;3.10;1.38;;;;;;;;;;7392612;19;20418;-60
2021/09/13 14:38:19;;;;;;;0.40;0.40;;;;;;;;;;7394571;19;20542;-54
2021/09/13 14:40:46;;;;;;;1.27;0.30;;;;;;;;;;7394416;19;20085;-57
2021/09/13 14:43:14;;;;;;;0.30;0.30;;;;;;;;;;7394769;19;20007;-58
2021/09/13 14:45:42;;;;;;;0.25;0.25;;;;;;;;;;7393772;19;20025;-56
2021/09/13 14:48:09;;;;;;;0.70;0.38;;;;;;;;;;7391983;19;20029;-58
2021/09/13 14:50:37;;;;;;;1.65;0.30;;;;;;;;;;7393519;19;20010;-57
2021/09/13 14:53:05;;;;;;;0.70;0.43;;;;;;;;;;7397942;19;20071;-58
2021/09/13 14:55:33;;;;;;;51.10;27.20;;;;;;;;;;7394534;19;20035;-60
2021/09/13 14:58:02;;;;;;;2.28;0.40;;;;;;;;;;7393080;19;20657;-59
2021/09/13 15:00:33;;;;;;;1.52;0.28;;;;;;;;;;7394363;19;20014;-61
2021/09/13 15:03:00;;;;;;;0.20;0.20;;;;;;;;;;7392621;19;20031;-60
2021/09/13 15:05:28;;;;;;;2.58;0.43;;;;;;;;;;7393804;19;20471;-60
2021/09/13 15:07:56;;;;;;;1.63;0.40;;;;;;;;;;7391738;19;20079;-61
2021/09/13 15:10:23;;;;;;;0.93;0.28;;;;;;;;;;7392430;19;20035;-59
2021/09/13 15:12:51;;;;;;;1.30;0.30;;;;;;;;;;7391454;19;20018;-60
2021/09/13 15:15:18;;;;;;;0.32;0.32;;;;;;;;;;7394121;19;20051;-61
2021/09/13 15:17:46;;;;;;;0.57;0.40;;;;;;;;;;7393868;19;20507;-60